Time;durP1;ratioP1;P1;durP2;ratioP2;P2;SDS_P1;SDS_P2;PMS_P1;PMS_P2;Temp;Humidity;BMP_temperature;BMP_pressure;BME280_temperature;BME280_humidity;BME280_pressure;Samples;Min_cycle;Max_cycle;Signal;HPM_P1;HPM_P2
2022/03/15 00:01:16;;;;;;;9.48;7.88;;;12.20;74.30;;;;;;4995799;28;20029;-81
2022/03/15 00:03:42;;;;;;;9.65;7.25;;;12.10;74.30;;;;;;5028523;28;20482;-82
2022/03/15 00:06:08;;;;;;;9.43;7.80;;;12.20;74.40;;;;;;4995925;28;20033;-82
2022/03/15 00:08:34;;;;;;;9.85;7.32;;;12.10;74.40;;;;;;5021854;28;20030;-81
2022/03/15 00:11:04;;;;;;;10.95;8.05;;;12.10;74.30;;;;;;4980081;28;20036;-80
2022/03/15 00:13:35;;;;;;;9.38;7.57;;;12.10;74.40;;;;;;5005344;28;20485;-81
2022/03/15 00:16:01;;;;;;;9.98;7.68;;;12.00;74.30;;;;;;5004790;28;20044;-81
2022/03/15 00:18:30;;;;;;;9.52;7.32;;;12.00;74.40;;;;;;5001421;28;20026;-81
2022/03/15 00:20:57;;;;;;;10.65;7.47;;;12.00;74.40;;;;;;4994344;28;20040;-81
2022/03/15 00:23:24;;;;;;;10.57;7.93;;;12.00;74.40;;;;;;4993258;28;20034;-81
2022/03/15 00:25:51;;;;;;;9.40;7.00;;;11.90;74.40;;;;;;5011758;28;20036;-81
2022/03/15 00:28:16;;;;;;;9.57;7.22;;;11.90;74.30;;;;;;5007785;28;20690;-81
2022/03/15 00:30:46;;;;;;;9.75;7.45;;;11.90;74.40;;;;;;4973755;28;20034;-81
2022/03/15 00:33:13;;;;;;;9.73;7.63;;;11.80;74.40;;;;;;4999609;28;20048;-81
2022/03/15 00:35:39;;;;;;;10.90;7.13;;;11.80;74.30;;;;;;4999102;28;20057;-81
2022/03/15 00:38:04;;;;;;;10.27;6.28;;;11.80;74.30;;;;;;4984255;28;20067;-81
2022/03/15 00:40:30;;;;;;;10.23;7.82;;;11.80;74.40;;;;;;4981072;28;20030;-82
2022/03/15 00:42:56;;;;;;;9.98;7.32;;;11.80;74.40;;;;;;4999874;28;20029;-81
2022/03/15 00:45:27;;;;;;;9.65;6.95;;;11.70;74.40;;;;;;5015461;28;20098;-81
2022/03/15 00:47:55;;;;;;;8.88;6.50;;;11.70;74.50;;;;;;4999177;28;20071;-83
2022/03/15 00:50:22;;;;;;;8.93;7.22;;;11.60;74.50;;;;;;5015744;28;20083;-80
2022/03/15 00:52:49;;;;;;;8.68;6.57;;;11.60;74.50;;;;;;4980135;28;20124;-81
2022/03/15 00:55:15;;;;;;;8.45;6.75;;;11.60;74.60;;;;;;4996830;28;20080;-81
2022/03/15 00:57:43;;;;;;;10.48;7.20;;;11.60;74.60;;;;;;4999638;28;20029;-82
2022/03/15 01:00:11;;;;;;;9.48;6.85;;;11.60;74.60;;;;;;5008452;28;20028;-81
2022/03/15 01:02:37;;;;;;;9.93;7.20;;;11.50;74.60;;;;;;4999266;28;20030;-81
2022/03/15 01:05:06;;;;;;;9.90;6.88;;;11.50;74.60;;;;;;4999907;28;20036;-81
2022/03/15 01:07:32;;;;;;;10.00;7.15;;;11.50;74.60;;;;;;4999273;28;20025;-81
2022/03/15 01:09:58;;;;;;;9.23;6.85;;;11.40;74.50;;;;;;4995985;28;20041;-81
2022/03/15 01:12:24;;;;;;;9.48;6.80;;;11.40;74.60;;;;;;4999991;28;20057;-81
2022/03/15 01:14:50;;;;;;;10.35;6.68;;;11.40;74.60;;;;;;4975114;28;20577;-80
2022/03/15 01:17:15;;;;;;;9.18;6.40;;;11.40;74.60;;;;;;4981594;28;20359;-79
2022/03/15 01:19:42;;;;;;;8.13;6.22;;;11.40;74.60;;;;;;5007320;28;20029;-81
2022/03/15 01:22:08;;;;;;;9.52;6.85;;;11.30;75.20;;;;;;4996546;28;20029;-81
2022/03/15 01:24:34;;;;;;;8.70;6.47;;;11.30;74.50;;;;;;5025418;28;20029;-81
2022/03/15 01:27:00;;;;;;;8.68;6.47;;;11.30;74.50;;;;;;4998830;28;20079;-81
2022/03/15 01:29:26;;;;;;;9.15;6.85;;;11.30;74.50;;;;;;4982608;28;20045;-81
2022/03/15 01:31:54;;;;;;;8.68;6.45;;;11.20;74.50;;;;;;4993466;28;20030;-82
2022/03/15 01:34:22;;;;;;;9.57;6.78;;;11.20;74.40;;;;;;5007403;28;20175;-81
2022/03/15 01:36:49;;;;;;;8.40;6.38;;;11.20;74.40;;;;;;4999294;28;20032;-81
2022/03/15 01:39:15;;;;;;;7.60;5.95;;;11.20;74.50;;;;;;4999396;28;20036;-81
2022/03/15 01:41:44;;;;;;;9.15;6.50;;;11.20;74.50;;;;;;4986950;28;20026;-81
2022/03/15 01:44:21;;;;;;;9.32;6.47;;;11.10;74.40;;;;;;5015207;28;20057;-80
2022/03/15 01:46:48;;;;;;;8.52;6.32;;;11.10;74.50;;;;;;5014603;28;20522;-81
2022/03/15 01:49:18;;;;;;;8.18;6.03;;;11.10;74.40;;;;;;4984039;28;20094;-80
2022/03/15 01:51:47;;;;;;;9.15;6.75;;;11.10;74.40;;;;;;4997717;28;20026;-81
2022/03/15 01:54:14;;;;;;;8.65;6.63;;;11.00;74.40;;;;;;4996835;28;20037;-81
2022/03/15 01:56:42;;;;;;;8.50;6.75;;;11.00;74.40;;;;;;4990479;28;20029;-81
2022/03/15 01:59:13;;;;;;;8.80;6.35;;;11.00;74.40;;;;;;4980908;28;20025;-81
2022/03/15 02:01:41;;;;;;;8.85;6.15;;;11.00;74.40;;;;;;5014087;28;20057;-81
2022/03/15 02:04:11;;;;;;;8.27;6.40;;;11.00;74.40;;;;;;4998204;28;20037;-80
2022/03/15 02:06:44;;;;;;;7.93;6.35;;;10.90;74.30;;;;;;5012214;28;20037;-80
2022/03/15 02:09:14;;;;;;;8.35;6.32;;;10.90;74.40;;;;;;4998986;28;20032;-80
2022/03/15 02:11:42;;;;;;;9.30;6.53;;;10.90;74.40;;;;;;4990169;28;20034;-81
2022/03/15 02:14:08;;;;;;;8.70;6.40;;;10.90;74.40;;;;;;5010490;28;20026;-81
2022/03/15 02:16:34;;;;;;;9.52;6.93;;;10.80;74.30;;;;;;5014382;28;20033;-81
2022/03/15 02:19:01;;;;;;;8.77;6.53;;;10.90;74.40;;;;;;5012895;28;20092;-80
2022/03/15 02:21:28;;;;;;;8.50;6.32;;;10.90;74.40;;;;;;5000051;28;20040;-80
2022/03/15 02:23:54;;;;;;;9.25;6.65;;;10.80;74.30;;;;;;4995685;28;20037;-81
2022/03/15 02:26:20;;;;;;;8.15;6.55;;;10.80;74.40;;;;;;5004197;28;20046;-80
2022/03/15 02:28:46;;;;;;;8.20;5.93;;;10.80;74.40;;;;;;4994752;28;20103;-80
2022/03/15 02:31:12;;;;;;;7.88;6.13;;;10.80;74.40;;;;;;4998172;28;20429;-81
2022/03/15 02:33:38;;;;;;;8.40;6.30;;;10.80;74.40;;;;;;4995309;28;20117;-81
2022/03/15 02:36:04;;;;;;;8.85;6.68;;;10.80;74.40;;;;;;4993942;28;20489;-81
2022/03/15 02:38:30;;;;;;;8.57;6.53;;;10.80;74.40;;;;;;4993876;28;20060;-81
2022/03/15 02:40:56;;;;;;;8.43;6.53;;;10.80;74.50;;;;;;4994627;28;20040;-79
2022/03/15 02:43:22;;;;;;;8.57;6.72;;;10.70;74.40;;;;;;4998429;28;20045;-80
2022/03/15 02:45:48;;;;;;;8.80;6.80;;;10.70;74.50;;;;;;5014922;28;20017;-81
2022/03/15 02:48:14;;;;;;;8.13;6.45;;;10.70;74.50;;;;;;5013814;28;20639;-81
2022/03/15 02:50:40;;;;;;;8.23;6.32;;;10.70;74.50;;;;;;5003170;28;20030;-81
2022/03/15 02:53:06;;;;;;;7.65;6.13;;;10.70;74.50;;;;;;5001954;28;20502;-80
2022/03/15 02:55:33;;;;;;;8.27;6.53;;;10.70;74.50;;;;;;4996798;28;20057;-81
2022/03/15 02:58:00;;;;;;;9.63;6.93;;;10.70;74.50;;;;;;4988522;28;20131;-80
2022/03/15 03:00:29;;;;;;;8.60;6.65;;;10.60;74.50;;;;;;5006216;28;20450;-80
2022/03/15 03:02:57;;;;;;;8.73;6.82;;;10.60;74.50;;;;;;5014200;28;20033;-81
2022/03/15 03:05:24;;;;;;;9.35;6.18;;;10.60;74.50;;;;;;5014122;28;20040;-81
2022/03/15 03:07:49;;;;;;;9.18;6.72;;;10.60;74.50;;;;;;4994562;28;20021;-80
2022/03/15 03:10:17;;;;;;;9.23;7.05;;;10.60;74.50;;;;;;4997613;28;20037;-80
2022/03/15 03:12:45;;;;;;;9.15;7.55;;;10.60;74.60;;;;;;4997573;28;20099;-81
2022/03/15 03:15:12;;;;;;;9.18;7.10;;;10.60;74.60;;;;;;4992003;28;20026;-81
2022/03/15 03:17:41;;;;;;;8.98;6.57;;;10.50;74.50;;;;;;4995985;28;20029;-81
2022/03/15 03:20:13;;;;;;;10.00;7.05;;;10.50;74.50;;;;;;4975486;28;20081;-81
2022/03/15 03:22:42;;;;;;;9.30;6.80;;;10.50;74.50;;;;;;5009025;28;20064;-82
2022/03/15 03:25:09;;;;;;;8.00;6.05;;;10.50;74.50;;;;;;4997917;28;20429;-81
2022/03/15 03:27:35;;;;;;;9.45;7.18;;;10.50;74.50;;;;;;4994497;28;20149;-81
2022/03/15 03:30:02;;;;;;;9.13;7.05;;;10.50;74.60;;;;;;5012906;28;20124;-81
2022/03/15 03:32:29;;;;;;;9.90;6.60;;;10.50;74.60;;;;;;4997824;28;20029;-80
2022/03/15 03:34:56;;;;;;;8.75;7.00;;;10.50;74.60;;;;;;4981042;28;20048;-81
2022/03/15 03:37:22;;;;;;;7.70;6.50;;;10.50;74.60;;;;;;5027519;28;20125;-82
2022/03/15 03:39:48;;;;;;;8.73;6.95;;;10.50;74.60;;;;;;5009590;28;20025;-81
2022/03/15 03:42:14;;;;;;;8.45;6.35;;;10.50;74.60;;;;;;5013897;28;20037;-82
2022/03/15 03:44:42;;;;;;;9.70;6.90;;;10.40;74.60;;;;;;5013676;28;20379;-81
2022/03/15 03:47:08;;;;;;;9.60;7.28;;;10.40;75.20;;;;;;5027660;28;20026;-80
2022/03/15 03:49:34;;;;;;;9.98;7.18;;;10.40;74.60;;;;;;5006807;28;20037;-81
2022/03/15 03:52:00;;;;;;;9.77;7.32;;;10.40;74.60;;;;;;4985858;28;20026;-80
2022/03/15 03:54:27;;;;;;;9.45;7.50;;;10.40;74.60;;;;;;5019046;28;20040;-81
2022/03/15 03:56:53;;;;;;;8.77;6.97;;;10.40;74.60;;;;;;4997457;28;20098;-81
2022/03/15 03:59:19;;;;;;;9.23;6.95;;;10.40;74.60;;;;;;5031303;28;20093;-81
2022/03/15 04:01:45;;;;;;;9.20;7.00;;;10.40;74.60;;;;;;5008799;28;20116;-82
2022/03/15 04:04:11;;;;;;;8.48;6.65;;;10.30;74.60;;;;;;5001615;28;20046;-81
2022/03/15 04:06:38;;;;;;;8.93;6.72;;;10.30;74.60;;;;;;4997301;28;20075;-81
2022/03/15 04:09:04;;;;;;;9.40;7.20;;;10.30;74.70;;;;;;4978580;28;20036;-81
2022/03/15 04:11:31;;;;;;;8.65;6.47;;;10.30;74.70;;;;;;4995049;28;20125;-80
2022/03/15 04:14:01;;;;;;;8.20;6.05;;;10.30;74.70;;;;;;5000727;28;20500;-81
2022/03/15 04:16:29;;;;;;;8.48;6.53;;;10.30;74.70;;;;;;4993731;28;20022;-81
2022/03/15 04:18:54;;;;;;;8.95;6.82;;;10.30;74.70;;;;;;5002115;28;20049;-81
2022/03/15 04:21:24;;;;;;;8.80;6.55;;;10.20;74.60;;;;;;5017940;28;20029;-81
2022/03/15 04:23:54;;;;;;;9.10;6.82;;;10.30;74.70;;;;;;5005776;28;20025;-81
2022/03/15 04:26:24;;;;;;;8.38;6.55;;;10.20;74.70;;;;;;5013949;28;20021;-79
2022/03/15 04:28:51;;;;;;;8.55;6.55;;;10.20;74.70;;;;;;5000145;28;20049;-81
2022/03/15 04:31:17;;;;;;;9.65;6.78;;;10.20;74.70;;;;;;4998108;28;20022;-81
2022/03/15 04:33:43;;;;;;;8.75;6.90;;;10.20;74.70;;;;;;4996863;28;20460;-81
2022/03/15 04:36:09;;;;;;;9.10;6.93;;;10.20;74.70;;;;;;5000282;28;20476;-81
2022/03/15 04:38:36;;;;;;;10.45;7.50;;;10.20;74.70;;;;;;5006092;28;20108;-80
2022/03/15 04:41:05;;;;;;;8.65;6.60;;;10.20;74.80;;;;;;5001247;28;20026;-81
2022/03/15 04:43:31;;;;;;;8.50;6.65;;;10.20;74.70;;;;;;5000595;28;20116;-81
2022/03/15 04:45:58;;;;;;;10.50;7.07;;;10.20;74.70;;;;;;5032601;28;20025;-80
2022/03/15 04:48:24;;;;;;;8.82;6.70;;;10.20;74.80;;;;;;5016847;28;20371;-81
2022/03/15 04:50:50;;;;;;;9.30;7.03;;;10.20;74.80;;;;;;4995692;28;20041;-80
2022/03/15 04:53:18;;;;;;;9.82;7.03;;;10.20;74.80;;;;;;5016495;28;20031;-81
2022/03/15 04:55:47;;;;;;;8.27;6.75;;;10.20;74.80;;;;;;5015902;28;20258;-80
2022/03/15 04:58:12;;;;;;;8.25;6.47;;;10.10;74.70;;;;;;4991613;28;20030;-80
2022/03/15 05:00:38;;;;;;;8.38;6.50;;;10.10;74.80;;;;;;4999618;28;20037;-82
2022/03/15 05:03:05;;;;;;;10.20;6.75;;;10.10;75.40;;;;;;4980969;28;20392;-81
2022/03/15 05:05:31;;;;;;;8.32;6.68;;;10.10;74.80;;;;;;4986247;28;20037;-78
2022/03/15 05:07:56;;;;;;;9.00;6.25;;;10.10;74.80;;;;;;4995335;28;20029;-78
2022/03/15 05:13:07;;;;;;;9.02;6.38;;;10.10;74.80;;;;;;5027791;28;20029;-78
2022/03/15 05:15:33;;;;;;;8.20;6.43;;;10.10;74.80;;;;;;5015784;28;20029;-79
2022/03/15 05:18:01;;;;;;;8.90;7.30;;;10.10;74.90;;;;;;5008078;28;20488;-78
2022/03/15 05:20:29;;;;;;;8.82;6.53;;;10.10;74.90;;;;;;4996965;28;20037;-79
2022/03/15 05:22:55;;;;;;;7.78;5.78;;;10.10;74.90;;;;;;4998819;28;20069;-78
2022/03/15 05:25:21;;;;;;;8.93;6.88;;;10.00;74.80;;;;;;4996593;28;20041;-79
2022/03/15 05:27:47;;;;;;;8.43;6.38;;;10.00;74.80;;;;;;5013120;28;20030;-78
2022/03/15 05:30:13;;;;;;;7.53;6.05;;;10.00;74.90;;;;;;5030757;28;20780;-79
2022/03/15 05:32:39;;;;;;;8.45;6.00;;;10.00;74.80;;;;;;5013151;28;20116;-79
2022/03/15 05:35:05;;;;;;;8.57;6.82;;;10.00;74.90;;;;;;5008652;28;20129;-78
2022/03/15 05:37:31;;;;;;;8.98;5.80;;;10.00;74.90;;;;;;5006919;28;20044;-78
2022/03/15 05:39:57;;;;;;;8.27;6.35;;;10.00;74.90;;;;;;4990318;28;20029;-80
2022/03/15 05:42:23;;;;;;;8.88;6.45;;;10.00;74.90;;;;;;4998872;28;20050;-78
2022/03/15 05:44:49;;;;;;;8.55;5.82;;;10.00;74.90;;;;;;4998938;28;20104;-76
2022/03/15 05:47:15;;;;;;;7.75;6.07;;;10.00;74.90;;;;;;4981761;28;20434;-79
2022/03/15 05:49:41;;;;;;;7.40;6.10;;;10.00;74.90;;;;;;4991406;28;20013;-79
2022/03/15 05:52:08;;;;;;;8.35;6.13;;;10.00;74.90;;;;;;4995697;28;20033;-78
2022/03/15 05:54:34;;;;;;;7.97;5.95;;;10.00;75.00;;;;;;4998200;28;20525;-79
2022/03/15 05:56:59;;;;;;;7.72;5.68;;;9.90;74.90;;;;;;4981359;28;20025;-77
2022/03/15 05:59:25;;;;;;;7.97;5.72;;;9.90;75.50;;;;;;5032138;28;20537;-81
2022/03/15 06:01:51;;;;;;;7.55;5.88;;;9.90;74.90;;;;;;4994662;28;20041;-79
2022/03/15 06:04:17;;;;;;;7.97;6.20;;;9.90;74.90;;;;;;4995734;28;20034;-86
2022/03/15 06:06:43;;;;;;;7.43;5.68;;;9.90;74.90;;;;;;4997270;28;20042;-81
2022/03/15 06:09:09;;;;;;;8.00;6.25;;;9.90;75.00;;;;;;5013451;28;20110;-81
2022/03/15 06:11:38;;;;;;;7.57;6.05;;;9.90;75.00;;;;;;5007456;28;20044;-81
2022/03/15 06:14:04;;;;;;;8.45;5.93;;;9.90;75.00;;;;;;4990696;28;20051;-80
2022/03/15 06:16:30;;;;;;;8.00;6.10;;;9.90;75.00;;;;;;4980859;28;20018;-79
2022/03/15 06:18:55;;;;;;;8.18;6.15;;;9.90;75.00;;;;;;4981039;28;20120;-80
2022/03/15 06:21:21;;;;;;;7.95;5.93;;;9.90;75.00;;;;;;4995248;28;20103;-80
2022/03/15 06:23:47;;;;;;;8.25;6.20;;;9.90;75.00;;;;;;5004403;28;20382;-80
2022/03/15 06:26:14;;;;;;;7.45;5.68;;;9.90;75.00;;;;;;4995651;28;20738;-78
2022/03/15 06:28:39;;;;;;;7.75;6.00;;;9.90;75.00;;;;;;4997343;28;20046;-80
2022/03/15 06:31:06;;;;;;;7.72;6.13;;;9.90;75.00;;;;;;5005414;28;20086;-79
2022/03/15 06:33:32;;;;;;;9.55;6.47;;;9.90;75.10;;;;;;4998077;28;20029;-80
2022/03/15 06:35:58;;;;;;;7.95;6.28;;;9.90;75.10;;;;;;4995228;28;20045;-81
2022/03/15 06:38:24;;;;;;;7.72;6.30;;;9.90;75.10;;;;;;4995435;28;20034;-80
2022/03/15 06:40:52;;;;;;;8.80;6.70;;;9.80;75.00;;;;;;5010892;28;20477;-80
2022/03/15 06:43:19;;;;;;;7.63;5.95;;;9.90;75.10;;;;;;5014253;28;20486;-80
2022/03/15 06:45:46;;;;;;;8.30;6.25;;;9.90;75.10;;;;;;4984302;28;20030;-79
2022/03/15 06:48:13;;;;;;;7.55;6.20;;;9.80;75.10;;;;;;5011820;28;20034;-79
2022/03/15 06:50:40;;;;;;;7.63;6.35;;;9.80;75.10;;;;;;5014672;28;20105;-80
2022/03/15 06:53:06;;;;;;;7.07;5.68;;;9.80;75.10;;;;;;4998105;28;20033;-80
2022/03/15 06:55:32;;;;;;;8.70;6.03;;;9.80;75.10;;;;;;4997717;28;20022;-79
2022/03/15 06:57:59;;;;;;;7.43;5.97;;;9.80;75.10;;;;;;4994651;28;20486;-80
2022/03/15 07:00:26;;;;;;;8.18;6.30;;;9.80;75.10;;;;;;5004617;28;20029;-80
2022/03/15 07:02:52;;;;;;;8.20;6.18;;;9.80;75.20;;;;;;4998006;28;20102;-80
2022/03/15 07:05:17;;;;;;;7.75;6.18;;;9.80;75.10;;;;;;4997761;28;20057;-81
2022/03/15 07:07:43;;;;;;;8.90;6.45;;;9.80;75.10;;;;;;4996661;28;20037;-83
2022/03/15 07:10:10;;;;;;;6.95;5.43;;;9.80;75.10;;;;;;4997380;28;20493;-81
2022/03/15 07:12:37;;;;;;;7.32;5.32;;;9.80;75.20;;;;;;4997493;28;20025;-81
2022/03/15 07:15:04;;;;;;;7.00;5.85;;;9.80;75.20;;;;;;4997331;28;20053;-79
2022/03/15 07:17:30;;;;;;;8.05;6.68;;;9.80;75.20;;;;;;4981493;28;20037;-80
2022/03/15 07:20:00;;;;;;;8.25;5.53;;;9.80;75.20;;;;;;4997829;28;20022;-80
2022/03/15 07:22:26;;;;;;;8.63;6.03;;;9.80;75.30;;;;;;5014524;28;20033;-81
2022/03/15 07:24:52;;;;;;;7.82;5.82;;;9.80;75.20;;;;;;5014210;28;20038;-81
2022/03/15 07:27:21;;;;;;;8.65;5.68;;;9.80;75.20;;;;;;5013794;28;20108;-81
2022/03/15 07:29:47;;;;;;;7.40;5.45;;;9.80;75.30;;;;;;4997309;28;20393;-80
2022/03/15 07:32:13;;;;;;;8.63;6.53;;;9.80;75.30;;;;;;4981113;28;20033;-80
2022/03/15 07:34:38;;;;;;;7.35;6.18;;;9.80;75.30;;;;;;5014116;28;20398;-80
2022/03/15 07:37:04;;;;;;;7.68;5.97;;;9.90;75.30;;;;;;4997194;28;20466;-81
2022/03/15 07:39:30;;;;;;;7.15;5.60;;;9.80;75.30;;;;;;4997413;28;20021;-81
2022/03/15 07:41:57;;;;;;;7.45;5.65;;;9.90;75.40;;;;;;5005092;28;20021;-80
2022/03/15 07:44:23;;;;;;;7.15;5.82;;;9.80;75.30;;;;;;4997478;28;20052;-80
2022/03/15 07:46:48;;;;;;;8.40;6.20;;;9.90;75.40;;;;;;4997424;28;20440;-80
2022/03/15 07:49:19;;;;;;;7.72;6.20;;;9.90;75.40;;;;;;5029956;28;20022;-80
2022/03/15 07:51:45;;;;;;;7.53;5.60;;;9.90;75.50;;;;;;5018555;28;20530;-80
2022/03/15 07:54:12;;;;;;;6.70;5.35;;;9.80;75.40;;;;;;5026275;28;20032;-80
2022/03/15 07:56:38;;;;;;;7.13;5.47;;;9.90;75.50;;;;;;4965046;28;20029;-80
2022/03/15 07:59:04;;;;;;;7.88;6.15;;;9.90;75.50;;;;;;5004986;28;20021;-80
2022/03/15 08:01:30;;;;;;;7.20;5.72;;;9.90;75.50;;;;;;4997014;28;20414;-81
2022/03/15 08:03:57;;;;;;;7.95;5.68;;;9.90;75.50;;;;;;4997190;28;20021;-80
2022/03/15 08:06:23;;;;;;;6.72;5.50;;;9.90;75.50;;;;;;5012643;28;20075;-79
2022/03/15 08:08:48;;;;;;;7.43;6.10;;;9.90;75.50;;;;;;4996630;28;20377;-80
2022/03/15 08:11:15;;;;;;;7.65;5.80;;;9.90;75.50;;;;;;4964411;28;20034;-81
2022/03/15 08:13:40;;;;;;;7.65;5.63;;;9.90;75.50;;;;;;5013265;28;20474;-80
2022/03/15 08:16:07;;;;;;;7.00;5.90;;;9.90;75.60;;;;;;4980499;28;20220;-80
2022/03/15 08:18:33;;;;;;;6.82;5.57;;;9.90;75.50;;;;;;5030607;28;20109;-81
2022/03/15 08:20:59;;;;;;;7.53;5.97;;;9.90;75.60;;;;;;5012417;28;20038;-80
2022/03/15 08:23:28;;;;;;;7.72;5.53;;;10.00;75.60;;;;;;4996026;28;20254;-81
2022/03/15 08:25:55;;;;;;;8.10;5.90;;;9.90;75.60;;;;;;5003864;28;20482;-81
2022/03/15 08:28:26;;;;;;;7.28;5.65;;;10.00;75.60;;;;;;5011405;28;20136;-81
2022/03/15 08:30:53;;;;;;;7.78;5.75;;;10.00;75.60;;;;;;5012212;28;20030;-81
2022/03/15 08:33:20;;;;;;;6.70;5.57;;;10.00;75.60;;;;;;5003848;28;20120;-80
2022/03/15 08:35:46;;;;;;;7.38;5.63;;;10.00;75.60;;;;;;5011545;28;20029;-81
2022/03/15 08:38:12;;;;;;;8.18;5.88;;;10.00;75.70;;;;;;4995652;28;20117;-80
2022/03/15 08:40:44;;;;;;;6.90;5.35;;;10.00;75.60;;;;;;5012203;28;20116;-81
2022/03/15 08:43:10;;;;;;;6.43;4.65;;;10.00;75.60;;;;;;4977364;28;20130;-81
2022/03/15 08:45:36;;;;;;;6.90;5.82;;;10.10;75.70;;;;;;5012583;28;20064;-80
2022/03/15 08:48:03;;;;;;;7.03;5.60;;;10.00;75.70;;;;;;4972231;28;20022;-80
2022/03/15 08:50:29;;;;;;;7.57;5.60;;;10.10;75.70;;;;;;5012730;28;20045;-81
2022/03/15 08:52:55;;;;;;;9.20;6.07;;;10.10;75.70;;;;;;4999428;28;20037;-81
2022/03/15 08:55:22;;;;;;;6.18;5.25;;;10.10;75.70;;;;;;4990965;28;20029;-81
2022/03/15 08:57:48;;;;;;;6.97;5.40;;;10.10;75.70;;;;;;5003392;28;20113;-81
2022/03/15 09:00:15;;;;;;;7.57;5.88;;;10.10;75.70;;;;;;5004463;28;20121;-81
2022/03/15 09:02:41;;;;;;;7.03;5.75;;;10.10;75.70;;;;;;4982091;28;20901;-81
2022/03/15 09:05:07;;;;;;;6.20;5.07;;;10.20;75.80;;;;;;5016106;28;20057;-82
2022/03/15 09:07:36;;;;;;;7.00;5.68;;;10.20;75.80;;;;;;4999556;28;20462;-81
2022/03/15 09:10:03;;;;;;;7.00;5.38;;;10.20;75.80;;;;;;4997341;28;20022;-81
2022/03/15 09:12:30;;;;;;;6.88;5.68;;;10.20;75.80;;;;;;4992683;28;20026;-82
2022/03/15 09:14:56;;;;;;;6.75;5.30;;;10.20;75.80;;;;;;5007256;28;20036;-81
2022/03/15 09:17:21;;;;;;;6.13;5.28;;;10.20;75.80;;;;;;4974823;28;20025;-81
2022/03/15 09:19:50;;;;;;;7.20;5.47;;;10.30;75.80;;;;;;4983043;28;20390;-81
2022/03/15 09:22:18;;;;;;;6.90;5.78;;;10.30;75.80;;;;;;4983970;28;20451;-80
2022/03/15 09:24:44;;;;;;;6.65;4.97;;;10.30;75.80;;;;;;4966927;28;20041;-81
2022/03/15 09:27:12;;;;;;;6.88;5.18;;;10.30;75.80;;;;;;4995810;28;20057;-81
2022/03/15 09:29:38;;;;;;;7.35;5.47;;;10.30;75.80;;;;;;5003477;28;20056;-81
2022/03/15 09:32:04;;;;;;;6.70;5.22;;;10.40;76.00;;;;;;4989846;28;20033;-80
2022/03/15 09:34:30;;;;;;;6.88;5.40;;;10.40;75.80;;;;;;4997626;28;20064;-80
2022/03/15 09:36:59;;;;;;;6.50;5.40;;;10.40;75.80;;;;;;4999570;28;20144;-81
2022/03/15 09:39:25;;;;;;;6.95;5.15;;;10.50;75.90;;;;;;4996168;28;20057;-80
2022/03/15 09:41:54;;;;;;;6.93;5.38;;;10.50;75.90;;;;;;5004433;28;20026;-79
2022/03/15 09:44:25;;;;;;;6.57;5.45;;;10.50;75.80;;;;;;5014818;28;20056;-80
2022/03/15 09:46:51;;;;;;;7.95;5.55;;;10.50;75.80;;;;;;5015668;28;20032;-80
2022/03/15 09:49:20;;;;;;;7.18;5.72;;;10.50;75.80;;;;;;4999130;28;20017;-80
2022/03/15 09:51:47;;;;;;;7.95;5.50;;;10.50;75.80;;;;;;5015692;28;20116;-80
2022/03/15 09:54:14;;;;;;;6.40;5.22;;;10.60;75.90;;;;;;4999279;28;20377;-82
2022/03/15 09:56:40;;;;;;;7.25;5.78;;;10.60;75.90;;;;;;4999562;28;20163;-79
2022/03/15 09:59:16;;;;;;;6.78;5.63;;;10.60;75.80;;;;;;4999366;28;20106;-80
2022/03/15 10:01:43;;;;;;;6.03;4.90;;;10.70;75.90;;;;;;5014410;28;20014;-82
2022/03/15 10:04:12;;;;;;;7.32;5.32;;;10.70;75.90;;;;;;4998621;28;20036;-81
2022/03/15 10:06:38;;;;;;;6.70;5.20;;;10.70;75.80;;;;;;5014686;28;20030;-81
2022/03/15 10:09:05;;;;;;;7.03;5.80;;;10.70;75.80;;;;;;5014787;28;20028;-81
2022/03/15 10:11:31;;;;;;;6.05;4.53;;;10.80;75.90;;;;;;5014979;28;20029;-82
2022/03/15 10:13:58;;;;;;;7.32;5.15;;;10.80;75.90;;;;;;5015513;28;20022;-81
2022/03/15 10:16:32;;;;;;;7.13;5.25;;;10.80;75.90;;;;;;5006442;28;20037;-82
2022/03/15 10:18:59;;;;;;;7.47;5.15;;;10.90;75.90;;;;;;5015115;28;20104;-81
2022/03/15 10:21:46;;;;;;;7.03;5.32;;;10.90;75.80;;;;;;4998726;28;20050;-81
2022/03/15 10:24:19;;;;;;;8.30;4.90;;;10.90;75.90;;;;;;5007552;28;20124;-80
2022/03/15 10:26:47;;;;;;;6.47;4.63;;;11.00;75.80;;;;;;5015251;28;20038;-82
2022/03/15 10:29:16;;;;;;;6.35;4.70;;;11.00;75.80;;;;;;5006793;28;20045;-81
2022/03/15 10:31:43;;;;;;;6.40;4.85;;;11.00;75.80;;;;;;5015182;28;20044;-82
2022/03/15 10:34:11;;;;;;;6.28;5.07;;;11.00;75.80;;;;;;4997958;28;20030;-81
2022/03/15 10:36:43;;;;;;;6.97;5.47;;;11.00;75.80;;;;;;5014765;28;20101;-81
2022/03/15 10:39:10;;;;;;;5.53;4.60;;;11.10;75.90;;;;;;5014929;28;20045;-80
2022/03/15 10:41:52;;;;;;;6.47;4.85;;;11.10;75.80;;;;;;4994835;28;20034;-81
2022/03/15 10:44:20;;;;;;;6.13;4.82;;;11.20;75.90;;;;;;5013256;28;20037;-81
2022/03/15 10:47:02;;;;;;;7.25;4.88;;;11.20;75.80;;;;;;4998237;28;20030;-81
2022/03/15 10:49:29;;;;;;;6.07;4.60;;;11.20;75.80;;;;;;5022247;28;20041;-81
2022/03/15 10:51:57;;;;;;;6.47;4.78;;;11.30;75.80;;;;;;4994866;28;20018;-81
2022/03/15 10:54:25;;;;;;;6.88;4.90;;;11.30;75.80;;;;;;4996072;28;20033;-84
2022/03/15 10:56:59;;;;;;;6.03;4.57;;;11.40;75.80;;;;;;4994663;28;20500;-80
2022/03/15 10:59:26;;;;;;;7.00;5.17;;;11.30;75.80;;;;;;4995554;28;20565;-81
2022/03/15 11:01:52;;;;;;;6.45;4.95;;;11.40;75.70;;;;;;5014565;28;20028;-82
2022/03/15 11:04:19;;;;;;;6.50;4.85;;;11.40;75.70;;;;;;5014512;28;20492;-82
2022/03/15 11:06:46;;;;;;;6.60;4.50;;;11.50;75.70;;;;;;5005648;28;20067;-81
2022/03/15 11:09:28;;;;;;;6.47;4.68;;;11.50;75.70;;;;;;5015832;28;20094;-82
2022/03/15 11:12:08;;;;;;;6.00;4.45;;;11.50;75.70;;;;;;4998169;28;20036;-82
2022/03/15 11:14:40;;;;;;;6.10;4.43;;;11.50;75.60;;;;;;5005531;28;20363;-81
2022/03/15 11:17:24;;;;;;;6.82;4.20;;;11.60;75.60;;;;;;4997930;28;20276;-81
2022/03/15 11:19:58;;;;;;;6.82;4.28;;;11.60;75.70;;;;;;4997503;28;20045;-81
2022/03/15 11:22:27;;;;;;;6.07;4.68;;;11.60;75.60;;;;;;5005357;28;20033;-80
2022/03/15 11:24:53;;;;;;;5.88;4.20;;;11.60;75.60;;;;;;5031259;28;20048;-80
2022/03/15 11:27:21;;;;;;;6.78;4.50;;;11.70;75.60;;;;;;5031399;28;20037;-82
2022/03/15 11:29:51;;;;;;;5.90;4.68;;;11.70;75.60;;;;;;4989451;28;20053;-81
2022/03/15 11:32:17;;;;;;;6.03;4.20;;;11.80;75.60;;;;;;5002302;28;20030;-81
2022/03/15 11:34:43;;;;;;;5.65;4.40;;;11.80;75.50;;;;;;4992980;28;20354;-80
2022/03/15 11:37:12;;;;;;;5.47;4.18;;;11.80;75.50;;;;;;5012207;28;20033;-81
2022/03/15 11:39:39;;;;;;;5.78;4.10;;;11.90;75.60;;;;;;4999660;28;20025;-81
2022/03/15 11:42:08;;;;;;;5.85;4.35;;;11.90;75.50;;;;;;4997685;28;20068;-81
2022/03/15 11:45:15;;;;;;;6.22;4.40;;;11.90;75.50;;;;;;5005137;28;20126;-81
2022/03/15 11:48:18;;;;;;;5.43;3.88;;;12.00;75.60;;;;;;4999449;28;20095;-81
2022/03/15 11:51:13;;;;;;;5.70;4.20;;;12.00;75.50;;;;;;5024111;28;20533;-81
2022/03/15 11:54:11;;;;;;;5.90;4.20;;;12.00;75.50;;;;;;5013173;28;20030;-79
2022/03/15 11:56:48;;;;;;;5.53;4.05;;;12.10;75.50;;;;;;5010551;28;20103;-79
2022/03/15 11:59:14;;;;;;;5.68;4.03;;;12.10;75.40;;;;;;4993080;28;20041;-81
2022/03/15 12:01:48;;;;;;;5.90;4.30;;;12.10;75.40;;;;;;5030386;28;20033;-81
2022/03/15 12:04:15;;;;;;;5.45;4.40;;;12.10;75.40;;;;;;5013237;28;20064;-80
2022/03/15 12:06:54;;;;;;;5.90;4.32;;;12.10;75.30;;;;;;5021221;28;20611;-80
2022/03/15 12:09:25;;;;;;;5.88;4.10;;;12.20;75.40;;;;;;4989675;28;20030;-81
2022/03/15 12:12:09;;;;;;;6.25;4.32;;;12.20;75.30;;;;;;5004067;28;21319;-80
2022/03/15 12:14:40;;;;;;;6.90;4.78;;;12.30;75.40;;;;;;5030089;28;20033;-80
2022/03/15 12:17:07;;;;;;;5.57;4.10;;;12.30;75.30;;;;;;5005145;28;20466;-80
2022/03/15 12:19:48;;;;;;;5.60;4.50;;;12.30;75.30;;;;;;4995843;28;20028;-80
2022/03/15 12:22:23;;;;;;;6.25;4.53;;;12.40;75.30;;;;;;5005048;28;20034;-81
2022/03/15 12:25:09;;;;;;;6.60;4.78;;;12.40;75.20;;;;;;5012229;28;20100;-80
2022/03/15 12:27:47;;;;;;;6.35;4.30;;;12.50;75.30;;;;;;5015948;28;20037;-80
2022/03/15 12:30:29;;;;;;;6.75;4.40;;;12.50;75.20;;;;;;4989840;28;20046;-81
2022/03/15 12:32:57;;;;;;;5.95;4.25;;;12.50;75.30;;;;;;4957910;28;20035;-80
2022/03/15 12:35:28;;;;;;;6.70;4.55;;;12.50;75.10;;;;;;4993023;28;20034;-80
2022/03/15 12:38:10;;;;;;;6.05;4.43;;;12.50;75.10;;;;;;4977095;28;20362;-80
2022/03/15 12:40:42;;;;;;;6.43;4.57;;;12.60;75.20;;;;;;4978376;28;20022;-81
2022/03/15 12:43:09;;;;;;;5.30;4.10;;;12.60;75.10;;;;;;4984665;28;20037;-80
2022/03/15 12:45:45;;;;;;;7.03;4.63;;;12.70;75.10;;;;;;4993098;28;20151;-81
2022/03/15 12:48:11;;;;;;;6.95;4.45;;;12.70;75.10;;;;;;4993031;28;20029;-81
2022/03/15 12:50:37;;;;;;;6.32;4.18;;;12.70;75.00;;;;;;4976920;28;20030;-80
2022/03/15 12:53:17;;;;;;;5.93;4.65;;;12.80;75.00;;;;;;4976777;28;20089;-79
2022/03/15 12:55:43;;;;;;;6.35;4.53;;;12.80;75.00;;;;;;4973555;28;20027;-80